createdAt,value
2016-06-18T00:00:47.772Z,17.44
2016-06-18T00:01:47.246Z,17.51
2016-06-18T00:02:47.248Z,17.36
2016-06-18T00:03:47.846Z,17.44
2016-06-18T00:04:47.271Z,17.42
2016-06-18T00:05:47.275Z,17.41
2016-06-18T00:06:47.918Z,17.34
2016-06-18T00:07:47.938Z,17.39
2016-06-18T00:08:47.347Z,17.36
2016-06-18T00:09:47.383Z,17.39
2016-06-18T00:10:48.043Z,17.36
2016-06-18T00:11:47.421Z,17.39
2016-06-18T00:12:47.440Z,17.39
2016-06-18T00:13:47.475Z,17.38
2016-06-18T00:14:47.478Z,17.38
2016-06-18T00:15:47.528Z,17.36
2016-06-18T00:16:48.188Z,17.3
2016-06-18T00:17:47.550Z,17.41
2016-06-18T00:18:47.585Z,17.39
2016-06-18T00:19:47.620Z,17.34
2016-06-18T00:20:47.639Z,17.39
2016-06-18T00:21:47.659Z,17.39
2016-06-18T00:22:47.693Z,17.33
2016-06-18T00:23:48.353Z,17.34
2016-06-18T00:24:47.731Z,17.39
2016-06-18T00:25:47.766Z,17.39
2016-06-18T00:26:47.832Z,17.38
2016-06-18T00:27:47.804Z,17.33
2016-06-18T00:28:47.839Z,17.31
2016-06-18T00:29:47.873Z,17.31
2016-06-18T00:30:48.517Z,17.38
2016-06-18T00:31:47.913Z,17.36
2016-06-18T00:32:47.946Z,17.36
2016-06-18T00:33:47.966Z,17.29
2016-06-18T00:34:47.984Z,17.27
2016-06-18T00:35:48.019Z,17.27
2016-06-18T00:36:48.039Z,17.3
2016-06-18T00:37:48.058Z,17.26
2016-06-18T00:38:48.076Z,17.22
2016-06-18T00:39:48.112Z,17.34
2016-06-18T00:40:48.130Z,17.22
2016-06-18T00:41:48.165Z,17.27
2016-06-18T00:42:48.185Z,17.38
2016-06-18T00:43:48.235Z,17.22
2016-06-18T00:44:48.219Z,17.23
2016-06-18T00:45:48.238Z,17.26
2016-06-18T00:46:48.292Z,17.3
2016-06-18T00:47:48.310Z,17.19
2016-06-18T00:48:48.330Z,17.26
2016-06-18T00:49:48.349Z,17.23
2016-06-18T00:50:48.367Z,17.23
2016-06-18T00:51:48.404Z,17.24
2016-06-18T00:52:48.407Z,17.16
2016-06-18T00:53:48.472Z,17.14
2016-06-18T00:54:48.476Z,17.19
2016-06-18T00:55:48.479Z,17.16
2016-06-18T00:56:48.577Z,17.15
2016-06-18T00:57:48.546Z,17.08
2016-06-18T00:58:48.564Z,17.26
2016-06-18T00:59:48.584Z,17.11
2016-06-18T01:00:48.602Z,17.08
2016-06-18T01:01:48.638Z,17.06
2016-06-18T01:02:48.656Z,17.15
2016-06-18T01:03:48.691Z,17.11
2016-06-18T01:04:48.710Z,17.11
2016-06-18T01:05:48.729Z,17.06
2016-06-18T01:06:48.764Z,17.02
2016-06-18T01:07:48.783Z,17.08
2016-06-18T01:08:48.802Z,17.06
2016-06-18T01:09:48.837Z,16.94
2016-06-18T01:10:48.855Z,16.99
2016-06-18T01:11:48.969Z,17.04
2016-06-18T01:12:48.973Z,17.02
2016-06-18T01:13:49.132Z,17.12
2016-06-18T01:14:49.136Z,16.99
2016-06-18T01:15:49.139Z,17.11
2016-06-18T01:16:49.142Z,16.93
2016-06-18T01:17:49.161Z,16.96
2016-06-18T01:18:49.164Z,17.06
2016-06-18T01:19:49.168Z,17.05
2016-06-18T01:20:49.171Z,17.02
2016-06-18T01:21:49.754Z,16.99
2016-06-18T01:22:49.335Z,17.04
2016-06-18T01:23:49.338Z,17.01
2016-06-18T01:24:49.358Z,17.01
2016-06-18T01:25:49.345Z,16.91
2016-06-18T01:26:49.333Z,16.99
2016-06-18T01:27:49.337Z,16.91
2016-06-18T01:28:49.356Z,16.87
2016-06-18T01:29:49.374Z,16.91
2016-06-18T01:30:49.394Z,16.91
2016-06-18T01:31:49.398Z,16.96
2016-06-18T01:32:49.417Z,16.83
2016-06-18T01:33:49.436Z,16.79
2016-06-18T01:34:49.455Z,16.84
2016-06-18T01:35:49.458Z,16.79
2016-06-18T01:36:49.476Z,16.79
2016-06-18T01:37:49.543Z,16.79
2016-06-18T01:38:49.531Z,16.81
2016-06-18T01:39:49.566Z,16.84
2016-06-18T01:40:49.601Z,16.81
2016-06-18T01:41:49.604Z,16.78
2016-06-18T01:42:50.248Z,16.86
2016-06-18T01:43:49.658Z,16.78
2016-06-18T01:44:49.676Z,16.76
2016-06-18T01:45:49.696Z,16.76
2016-06-18T01:46:49.731Z,16.76
2016-06-18T01:47:49.750Z,16.72
2016-06-18T01:48:49.784Z,16.75
2016-06-18T01:49:49.804Z,16.72
2016-06-18T01:50:49.823Z,16.65
2016-06-18T01:51:49.857Z,16.78
2016-06-18T01:52:49.861Z,16.64
2016-06-18T01:53:49.896Z,16.72
2016-06-18T01:54:49.949Z,16.65
2016-06-18T01:55:49.939Z,16.65
2016-06-18T01:56:50.586Z,16.61
2016-06-18T01:57:49.999Z,16.65
2016-06-18T01:58:50.037Z,16.66
2016-06-18T01:59:50.667Z,16.58
2016-06-18T02:00:50.077Z,16.64
2016-06-18T02:01:50.723Z,16.64
2016-06-18T02:02:50.134Z,16.61
2016-06-18T02:03:50.154Z,16.64
2016-06-18T02:04:50.174Z,16.53
2016-06-18T02:05:50.209Z,16.56
2016-06-18T02:06:50.228Z,16.54
2016-06-18T02:07:50.248Z,16.6
2016-06-18T02:08:50.283Z,16.56
2016-06-18T02:09:50.303Z,16.57
2016-06-18T02:10:51.650Z,16.47
2016-06-18T02:11:50.982Z,16.5
2016-06-18T02:12:50.376Z,16.47
2016-06-18T02:13:50.396Z,16.46
2016-06-18T02:14:50.415Z,16.5
2016-06-18T02:15:50.450Z,16.56
2016-06-18T02:16:50.469Z,16.51
2016-06-18T02:17:50.504Z,16.43
2016-06-18T02:18:50.507Z,16.43
2016-06-18T02:19:50.525Z,16.46
2016-06-18T02:20:50.561Z,16.5
2016-06-18T02:21:50.595Z,16.49
2016-06-18T02:22:50.630Z,16.49
2016-06-18T02:23:50.633Z,16.35
2016-06-18T02:24:50.668Z,16.43
2016-06-18T02:25:50.687Z,16.43
2016-06-18T02:26:50.707Z,16.46
2016-06-18T02:27:51.413Z,16.43
2016-06-18T02:28:50.760Z,16.43
2016-06-18T02:29:50.779Z,16.35
2016-06-18T02:30:50.799Z,16.46
2016-06-18T02:31:51.458Z,16.38
2016-06-18T02:32:50.853Z,16.38
2016-06-18T02:33:50.871Z,16.39
2016-06-18T02:34:50.890Z,16.41
2016-06-18T02:35:50.925Z,16.38
2016-06-18T02:36:50.945Z,16.35
2016-06-18T02:37:51.587Z,16.21
2016-06-18T02:38:50.982Z,16.21
2016-06-18T02:39:51.658Z,16.31
2016-06-18T02:40:51.037Z,16.28
2016-06-18T02:41:51.164Z,16.26
2016-06-18T02:42:51.152Z,16.2
2016-06-18T02:43:51.312Z,16.23
2016-06-18T02:44:51.316Z,16.32
2016-06-18T02:45:51.320Z,16.28
2016-06-18T02:46:51.337Z,16.23
2016-06-18T02:47:51.341Z,16.28
2016-06-18T02:48:51.361Z,16.2
2016-06-18T02:49:51.974Z,16.16
2016-06-18T02:50:51.367Z,16.16
2016-06-18T02:51:51.371Z,16.2
2016-06-18T02:52:51.390Z,16.21
2016-06-18T02:53:51.534Z,16.15
2016-06-18T02:54:52.162Z,16.1
2016-06-18T02:55:51.447Z,16.16
2016-06-18T02:56:51.450Z,16.15
2016-06-18T02:57:51.532Z,16.15
2016-06-18T02:58:51.536Z,16.16
2016-06-18T02:59:51.586Z,16.13
2016-06-18T03:00:51.589Z,16.12
2016-06-18T03:01:51.593Z,16.09
2016-06-18T03:02:51.612Z,16.09
2016-06-18T03:03:51.600Z,16.05
2016-06-18T03:04:51.603Z,16.04
2016-06-18T03:05:51.622Z,16.15
2016-06-18T03:06:51.657Z,16.09
2016-06-18T03:07:51.661Z,16.05
2016-06-18T03:08:51.695Z,16.02
2016-06-18T03:09:51.730Z,16.08
2016-06-18T03:10:51.749Z,16.04
2016-06-18T03:11:51.768Z,16.01
2016-06-18T03:12:51.788Z,16.02
2016-06-18T03:13:51.822Z,15.97
2016-06-18T03:14:51.840Z,16.02
2016-06-18T03:15:51.860Z,16.01
2016-06-18T03:16:52.505Z,15.95
2016-06-18T03:17:52.523Z,15.95
2016-06-18T03:18:51.934Z,15.91
2016-06-18T03:19:52.577Z,16.01
2016-06-18T03:20:52.627Z,16.02
2016-06-18T03:21:52.006Z,15.98
2016-06-18T03:22:52.666Z,15.97
2016-06-18T03:23:52.059Z,15.95
2016-06-18T03:24:52.063Z,15.98
2016-06-18T03:25:52.114Z,15.91
2016-06-18T03:26:52.132Z,15.98
2016-06-18T03:27:52.151Z,15.95
2016-06-18T03:28:52.171Z,15.95
2016-06-18T03:29:52.205Z,15.97
2016-06-18T03:30:52.834Z,15.97
2016-06-18T03:31:52.244Z,16
2016-06-18T03:32:52.262Z,16.02
2016-06-18T03:33:52.297Z,15.97
2016-06-18T03:34:52.317Z,15.98
2016-06-18T03:35:52.961Z,15.94
2016-06-18T03:36:52.370Z,15.98
2016-06-18T03:37:52.389Z,16
2016-06-18T03:38:52.409Z,15.97
2016-06-18T03:39:52.443Z,16.02
2016-06-18T03:40:52.463Z,16.04
2016-06-18T03:41:52.481Z,16.04
2016-06-18T03:42:53.141Z,15.98
2016-06-18T03:43:52.535Z,15.98
2016-06-18T03:44:52.555Z,16.05
2016-06-18T03:45:53.198Z,15.98
2016-06-18T03:46:52.592Z,15.92
2016-06-18T03:47:52.627Z,16.05
2016-06-18T03:48:52.646Z,16
2016-06-18T03:49:52.681Z,15.97
2016-06-18T03:50:53.340Z,16
2016-06-18T03:51:53.344Z,16.08
2016-06-18T03:52:52.754Z,15.98
2016-06-18T03:53:53.383Z,16
2016-06-18T03:54:52.792Z,16.15
2016-06-18T03:55:52.811Z,16.04
2016-06-18T03:56:52.830Z,16.01
2016-06-18T03:57:52.864Z,16.05
2016-06-18T03:58:52.884Z,16.04
2016-06-18T03:59:52.903Z,16.08
2016-06-18T04:00:52.922Z,16.02
2016-06-18T04:01:52.957Z,16.05
2016-06-18T04:02:53.586Z,16.05
2016-06-18T04:03:52.995Z,16.04
2016-06-18T04:04:53.030Z,15.98
2016-06-18T04:05:53.658Z,16.05
2016-06-18T04:06:53.067Z,16.05
2016-06-18T04:07:53.087Z,16.05
2016-06-18T04:08:53.122Z,16.04
2016-06-18T04:09:53.125Z,16.05
2016-06-18T04:10:53.161Z,16.09
2016-06-18T04:11:53.187Z,16
2016-06-18T04:12:53.228Z,16.02
2016-06-18T04:13:53.270Z,16.04
2016-06-18T04:14:53.918Z,16.05
2016-06-18T04:15:53.927Z,16.04
2016-06-18T04:16:53.339Z,16.02
2016-06-18T04:17:53.970Z,16.02
2016-06-18T04:18:53.382Z,16
2016-06-18T04:19:53.435Z,16.04
2016-06-18T04:20:53.440Z,16.08
2016-06-18T04:21:53.460Z,16.09
2016-06-18T04:22:53.479Z,16.09
2016-06-18T04:23:54.125Z,16.01
2016-06-18T04:24:53.535Z,16.01
2016-06-18T04:25:53.570Z,16.01
2016-06-18T04:26:53.590Z,16.05
2016-06-18T04:27:53.610Z,16.01
2016-06-18T04:28:53.644Z,16.04
2016-06-18T04:29:54.273Z,16.04
2016-06-18T04:30:54.293Z,16.04
2016-06-18T04:31:54.327Z,16.01
2016-06-18T04:32:54.346Z,16.04
2016-06-18T04:33:53.756Z,16.04
2016-06-18T04:34:53.775Z,16.04
2016-06-18T04:35:53.794Z,16.09
2016-06-18T04:36:53.814Z,16.05
2016-06-18T04:37:53.847Z,15.97
2016-06-18T04:38:53.867Z,15.97
2016-06-18T04:39:53.918Z,16.04
2016-06-18T04:40:54.546Z,16.08
2016-06-18T04:41:54.549Z,16.04
2016-06-18T04:42:53.959Z,16.02
2016-06-18T04:43:53.978Z,16.1
2016-06-18T04:44:54.013Z,16.08
2016-06-18T04:45:54.642Z,16.05
2016-06-18T04:46:54.051Z,16.01
2016-06-18T04:47:54.085Z,16.1
2016-06-18T04:48:54.121Z,16.1
2016-06-18T04:49:54.124Z,16.05
2016-06-18T04:50:54.143Z,16.09
2016-06-18T04:51:54.178Z,16.08
2016-06-18T04:52:54.197Z,16.02
2016-06-18T04:53:54.216Z,16.02
2016-06-18T04:54:54.250Z,16.1
2016-06-18T04:55:54.270Z,16.1
2016-06-18T04:56:54.288Z,16.05
2016-06-18T04:57:54.402Z,16.09
2016-06-18T04:58:54.952Z,16.04
2016-06-18T04:59:54.424Z,16.15
2016-06-18T05:00:54.459Z,16.15
2016-06-18T05:01:55.665Z,16.05
2016-06-18T05:02:54.434Z,16.08
2016-06-18T05:03:54.454Z,16.1
2016-06-18T05:04:54.488Z,16.13
2016-06-18T05:05:55.117Z,16.15
2016-06-18T05:06:54.526Z,16.12
2016-06-18T05:07:54.545Z,16.13
2016-06-18T05:08:54.565Z,16.12
2016-06-18T05:09:54.584Z,16.15
2016-06-18T05:10:54.618Z,16.12
2016-06-18T05:11:55.262Z,16.09
2016-06-18T05:12:54.672Z,16.12
2016-06-18T05:13:55.301Z,16.16
2016-06-18T05:14:54.710Z,16.13
2016-06-18T05:15:55.354Z,16.17
2016-06-18T05:16:54.764Z,16.16
2016-06-18T05:17:54.799Z,16.16
2016-06-18T05:18:54.803Z,16.09
2016-06-18T05:19:55.445Z,16.15
2016-06-18T05:20:54.856Z,16.17
2016-06-18T05:21:55.516Z,16.13
2016-06-18T05:22:55.519Z,16.13
2016-06-18T05:23:55.539Z,16.12
2016-06-18T05:24:54.949Z,16.16
2016-06-18T05:25:55.060Z,16.16
2016-06-18T05:26:54.986Z,16.12
2016-06-18T05:27:55.021Z,16.21
2016-06-18T05:28:55.102Z,16.16
2016-06-18T05:29:55.059Z,16.2
2016-06-18T05:30:55.078Z,16.16
2016-06-18T05:31:55.159Z,16.17
2016-06-18T05:32:55.148Z,16.16
2016-06-18T05:33:55.167Z,16.16
2016-06-18T05:34:55.216Z,16.2
2016-06-18T05:35:55.845Z,16.21
2016-06-18T05:36:55.334Z,16.16
2016-06-18T05:37:55.290Z,16.23
2016-06-18T05:38:55.293Z,16.26
2016-06-18T05:39:55.297Z,16.28
2016-06-18T05:40:55.988Z,16.23
2016-06-18T05:41:55.351Z,16.26
2016-06-18T05:42:55.386Z,16.29
2016-06-18T05:43:55.404Z,16.31
2016-06-18T05:44:55.423Z,16.26
2016-06-18T05:45:55.443Z,16.26
2016-06-18T05:46:55.461Z,16.24
2016-06-18T05:47:55.497Z,16.26
2016-06-18T05:48:55.515Z,16.36
2016-06-18T05:49:55.535Z,16.17
2016-06-18T05:50:55.553Z,16.32
2016-06-18T05:51:55.589Z,16.39
2016-06-18T05:52:55.607Z,16.33
2016-06-18T05:53:55.626Z,16.36
2016-06-18T05:54:56.349Z,16.33
2016-06-18T05:55:55.680Z,16.35
2016-06-18T05:56:55.699Z,16.39
2016-06-18T05:57:56.375Z,16.32
2016-06-18T05:58:55.738Z,16.49
2016-06-18T05:59:55.772Z,16.36
2016-06-18T06:00:56.417Z,16.33
2016-06-18T06:01:55.810Z,16.38
2016-06-18T06:02:55.845Z,16.39
2016-06-18T06:03:56.489Z,16.39
2016-06-18T06:04:55.976Z,16.39
2016-06-18T06:05:55.965Z,16.39
2016-06-18T06:06:56.000Z,16.42
2016-06-18T06:07:56.019Z,16.47
2016-06-18T06:08:56.037Z,16.51
2016-06-18T06:09:56.057Z,16.56
2016-06-18T06:10:56.122Z,16.51
2016-06-18T06:11:56.142Z,16.51
2016-06-18T06:12:56.692Z,16.5
2016-06-18T06:13:56.289Z,16.54
2016-06-18T06:14:56.293Z,16.49
2016-06-18T06:15:56.764Z,16.47
2016-06-18T06:16:56.940Z,16.49
2016-06-18T06:17:56.319Z,16.54
2016-06-18T06:18:56.838Z,16.54
2016-06-18T06:19:57.482Z,16.57
2016-06-18T06:20:56.892Z,16.6
2016-06-18T06:21:56.348Z,16.64
2016-06-18T06:22:56.367Z,16.61
2016-06-18T06:23:56.371Z,16.66
2016-06-18T06:24:56.374Z,16.61
2016-06-18T06:25:56.379Z,16.66
2016-06-18T06:26:56.413Z,16.65
2016-06-18T06:27:56.432Z,16.69
2016-06-18T06:28:57.062Z,16.61
2016-06-18T06:29:56.487Z,16.65
2016-06-18T06:30:56.508Z,16.75
2016-06-18T06:31:56.528Z,16.71
2016-06-18T06:32:56.547Z,16.74
2016-06-18T06:33:56.582Z,16.75
2016-06-18T06:34:57.226Z,16.76
2016-06-18T06:35:56.621Z,16.79
2016-06-18T06:36:56.656Z,16.78
2016-06-18T06:37:56.675Z,16.78
2016-06-18T06:38:56.693Z,16.84
2016-06-18T06:39:57.338Z,16.86
2016-06-18T06:40:57.357Z,16.86
2016-06-18T06:41:57.393Z,16.84
2016-06-18T06:42:57.410Z,16.83
2016-06-18T06:43:56.821Z,16.79
2016-06-18T06:44:56.839Z,16.91
2016-06-18T06:45:57.484Z,16.87
2016-06-18T06:46:57.503Z,16.9
2016-06-18T06:47:57.538Z,16.93
2016-06-18T06:48:56.931Z,16.9
2016-06-18T06:49:56.951Z,16.91
2016-06-18T06:50:57.596Z,16.99
2016-06-18T06:51:57.020Z,17.01
2016-06-18T06:52:57.024Z,17.04
2016-06-18T06:53:57.058Z,16.84
2016-06-18T06:54:57.093Z,17.02
2016-06-18T06:55:57.722Z,17.04
2016-06-18T06:56:57.116Z,17.05
2016-06-18T06:57:57.151Z,17.04
2016-06-18T06:58:57.169Z,17.09
2016-06-18T06:59:57.813Z,17.04
2016-06-18T07:00:57.864Z,17.12
2016-06-18T07:01:57.868Z,17.11
2016-06-18T07:02:57.262Z,17.16
2016-06-18T07:03:57.297Z,17.11
2016-06-18T07:04:57.314Z,17.12
2016-06-18T07:05:57.334Z,17.16
2016-06-18T07:06:57.354Z,17.22
2016-06-18T07:07:57.388Z,17.24
2016-06-18T07:08:57.408Z,17.22
2016-06-18T07:09:57.426Z,17.24
2016-06-18T07:10:57.460Z,17.33
2016-06-18T07:11:57.480Z,17.39
2016-06-18T07:12:57.515Z,17.36
2016-06-18T07:13:57.534Z,17.34
2016-06-18T07:14:57.554Z,17.49
2016-06-18T07:15:57.571Z,17.52
2016-06-18T07:16:57.606Z,17.51
2016-06-18T07:17:57.625Z,17.48
2016-06-18T07:18:58.363Z,17.52
2016-06-18T07:19:57.664Z,17.64
2016-06-18T07:20:57.684Z,17.7
2016-06-18T07:21:57.733Z,17.68
2016-06-18T07:22:57.752Z,17.72
2016-06-18T07:23:57.771Z,17.78
2016-06-18T07:24:58.416Z,17.78
2016-06-18T07:25:58.919Z,17.89
2016-06-18T07:26:57.845Z,17.92
2016-06-18T07:27:57.864Z,17.87
2016-06-18T07:28:57.897Z,17.98
2016-06-18T07:29:57.917Z,18.05
2016-06-18T07:30:57.951Z,18.08
2016-06-18T07:31:57.955Z,18.04
2016-06-18T07:32:57.991Z,18.16
2016-06-18T07:33:58.009Z,18.18
2016-06-18T07:34:58.748Z,18.29
2016-06-18T07:35:58.297Z,18.38
2016-06-18T07:36:58.286Z,18.53
2016-06-18T07:37:58.195Z,18.52
2016-06-18T07:38:58.339Z,18.6
2016-06-18T07:39:58.905Z,18.68
2016-06-18T07:40:58.299Z,18.75
2016-06-18T07:41:58.303Z,18.74
2016-06-18T07:42:58.321Z,18.86
2016-06-18T07:43:58.324Z,18.86
2016-06-18T07:44:58.328Z,18.92
2016-06-18T07:45:58.472Z,18.98
2016-06-18T07:46:58.585Z,18.99
2016-06-18T07:47:58.511Z,19.09
2016-06-18T07:48:58.499Z,19.11
2016-06-18T07:49:58.517Z,19.14
2016-06-18T07:50:58.521Z,19.15
2016-06-18T07:51:58.541Z,19.27
2016-06-18T07:52:58.527Z,19.29
2016-06-18T07:53:58.547Z,19.3
2016-06-18T07:54:58.550Z,19.37
2016-06-18T07:55:58.554Z,19.51
2016-06-18T07:56:58.573Z,19.54
2016-06-18T07:57:58.592Z,19.67
2016-06-18T07:58:58.612Z,19.69
2016-06-18T07:59:58.646Z,19.67
2016-06-18T08:00:58.680Z,19.59
2016-06-18T08:01:59.309Z,19.69
2016-06-18T08:02:58.703Z,19.77
2016-06-18T08:03:58.738Z,19.81
2016-06-18T08:04:58.788Z,19.82
2016-06-18T08:05:58.792Z,19.89
2016-06-18T08:06:58.811Z,19.94
2016-06-18T08:07:58.829Z,19.95
2016-06-18T08:08:58.865Z,20.04
2016-06-18T08:09:58.899Z,20.04
2016-06-18T08:10:59.528Z,20.13
2016-06-18T08:11:58.937Z,20.14
2016-06-18T08:12:58.972Z,20.29
2016-06-18T08:13:59.601Z,20.28
2016-06-18T08:14:59.010Z,20.44
2016-06-18T08:15:59.046Z,20.47
2016-06-18T08:16:59.063Z,20.43
2016-06-18T08:17:59.083Z,20.48
2016-06-18T08:18:59.117Z,20.5
2016-06-18T08:19:59.154Z,20.58
2016-06-18T08:20:59.157Z,20.63
2016-06-18T08:21:59.175Z,20.65
2016-06-18T08:22:59.209Z,20.75
2016-06-18T08:23:59.245Z,20.78
2016-06-18T08:24:59.263Z,20.85
2016-06-18T08:25:59.299Z,20.88
2016-06-18T08:26:59.318Z,20.87
2016-06-18T08:27:59.352Z,20.97
2016-06-18T08:28:59.371Z,21
2016-06-18T08:29:59.390Z,21.07
2016-06-18T08:31:00.034Z,21.15
2016-06-18T08:31:59.445Z,21.21
2016-06-18T08:32:59.479Z,21.22
2016-06-18T08:33:59.498Z,21.32
2016-06-18T08:35:00.126Z,21.3
2016-06-18T08:35:59.551Z,21.36
2016-06-18T08:37:00.196Z,21.42
2016-06-18T08:37:59.590Z,21.4
2016-06-18T08:38:59.625Z,21.52
2016-06-18T08:39:59.643Z,21.57
2016-06-18T08:40:59.663Z,21.64
2016-06-18T08:41:59.682Z,21.73
2016-06-18T08:43:00.341Z,21.75
2016-06-18T08:43:59.738Z,21.73
2016-06-18T08:47:09.687Z,22.06
2016-06-18T08:47:19.281Z,21.96
2016-06-18T08:47:35.828Z,22.38
2016-06-18T08:48:35.866Z,22.51
2016-06-18T08:49:35.888Z,22.45
2016-06-18T08:50:36.018Z,22.51
2016-06-18T08:51:35.960Z,22.48
2016-06-18T08:52:35.981Z,22.57
2016-06-18T08:53:36.002Z,22.69
2016-06-18T08:54:37.270Z,22.69
2016-06-18T08:55:36.057Z,22.69
2016-06-18T08:56:36.716Z,22.8
2016-06-18T08:57:36.126Z,22.83
2016-06-18T08:58:36.146Z,22.84
2016-06-18T08:59:36.165Z,22.98
2016-06-18T09:00:36.809Z,23
2016-06-18T09:01:36.220Z,23.09
2016-06-18T09:02:36.255Z,23.06
2016-06-18T09:03:36.289Z,23.13
2016-06-18T09:04:36.293Z,23.24
2016-06-18T09:05:36.328Z,23.39
2016-06-18T09:06:36.362Z,23.44
2016-06-18T09:07:36.381Z,23.55
2016-06-18T09:08:36.400Z,23.65
2016-06-18T09:09:36.436Z,23.69
2016-06-18T09:10:36.454Z,23.74
2016-06-18T09:11:36.489Z,23.71
2016-06-18T09:12:36.508Z,23.87
2016-06-18T09:13:36.543Z,23.87
2016-06-18T09:14:36.578Z,24.06
2016-06-18T09:15:36.596Z,24.11
2016-06-18T09:16:37.850Z,24.18
2016-06-18T09:17:36.651Z,24.21
2016-06-18T09:20:13.941Z,24.33
2016-06-18T09:21:14.006Z,24.33
2016-06-18T09:22:13.416Z,24.47
2016-06-18T09:23:13.435Z,24.4
2016-06-18T09:24:14.252Z,24.5
2016-06-18T09:25:13.505Z,24.6
2016-06-18T09:26:13.602Z,24.61
2016-06-18T09:27:14.152Z,24.6
2016-06-18T09:28:13.625Z,24.65
2016-06-18T09:29:13.644Z,24.7
2016-06-18T09:31:14.401Z,24.81
2016-06-18T09:32:13.639Z,24.69
2016-06-18T09:33:14.267Z,24.85
2016-06-18T09:34:13.692Z,24.89
2016-06-18T09:35:13.743Z,24.88
2016-06-18T09:36:14.371Z,24.92
2016-06-18T09:37:13.765Z,24.99
2016-06-18T09:38:13.784Z,25.01
2016-06-18T09:39:13.835Z,25.14
2016-06-18T09:40:15.385Z,25.13
2016-06-18T09:41:14.514Z,25.16
2016-06-18T09:42:13.923Z,25.16
2016-06-18T09:43:13.959Z,25.26
2016-06-18T09:44:13.961Z,25.26
2016-06-18T09:45:13.996Z,25.32
2016-06-18T09:46:14.656Z,25.33
2016-06-18T09:47:14.159Z,25.33
2016-06-18T09:48:14.084Z,25.44
2016-06-18T09:49:14.104Z,25.59
2016-06-18T09:50:14.138Z,25.51
2016-06-18T09:51:14.173Z,25.54
2016-06-18T09:52:14.833Z,25.6
2016-06-18T09:53:14.852Z,25.6
2016-06-18T09:54:14.261Z,25.68
2016-06-18T09:55:14.281Z,25.7
2016-06-18T09:56:14.315Z,25.84
2016-06-18T09:57:14.335Z,25.85
2016-06-18T09:58:14.369Z,25.98
2016-06-18T09:59:14.403Z,26.02
2016-06-18T10:00:14.438Z,26.09
2016-06-18T10:01:15.191Z,26.19
2016-06-18T10:02:15.336Z,26.23
2016-06-18T10:03:14.511Z,26.1
2016-06-18T10:04:15.156Z,26.25
2016-06-18T10:05:14.565Z,26.23
2016-06-18T10:06:14.584Z,26.31
2016-06-18T10:07:14.619Z,26.29
2016-06-18T10:08:15.279Z,26.4
2016-06-18T10:09:14.689Z,26.34
2016-06-18T10:10:14.708Z,26.41
2016-06-18T10:11:14.742Z,26.34
2016-06-18T10:12:14.777Z,26.36
2016-06-18T10:13:14.812Z,26.38
2016-06-18T10:14:14.846Z,26.41
2016-06-18T10:15:14.864Z,26.41
2016-06-18T10:16:14.884Z,26.45
2016-06-18T10:17:14.919Z,26.51
2016-06-18T10:18:16.282Z,26.53
2016-06-18T10:19:14.973Z,26.58
2016-06-18T10:20:15.618Z,26.59
2016-06-18T10:21:15.043Z,26.62
2016-06-18T10:22:15.077Z,26.63
2016-06-18T10:23:15.737Z,26.62
2016-06-18T10:24:15.131Z,26.6
2016-06-18T10:25:15.165Z,26.6
2016-06-18T10:26:15.809Z,26.68
2016-06-18T10:27:15.219Z,26.75
2016-06-18T10:28:15.253Z,26.65
2016-06-18T10:29:15.320Z,26.66
2016-06-18T10:30:15.323Z,26.63
2016-06-18T10:31:15.343Z,26.66
2016-06-18T10:32:15.361Z,26.65
2016-06-18T10:33:15.396Z,26.63
2016-06-18T10:34:15.431Z,26.63
2016-06-18T10:35:15.482Z,26.62
2016-06-18T10:36:15.485Z,26.7
2016-06-18T10:37:16.222Z,26.78
2016-06-18T10:38:15.554Z,26.84
2016-06-18T10:39:15.574Z,26.88
2016-06-18T10:40:15.608Z,26.95
2016-06-18T10:41:16.283Z,27.02
2016-06-18T10:42:15.662Z,27.08
2016-06-18T10:43:16.415Z,27.12
2016-06-18T10:44:15.746Z,27.26
2016-06-18T10:45:15.751Z,27.27
2016-06-18T10:46:15.785Z,27.39
2016-06-18T10:47:15.819Z,27.42
2016-06-18T10:48:15.838Z,27.49
2016-06-18T10:49:15.873Z,27.47
2016-06-18T10:50:15.909Z,27.48
2016-06-18T10:51:16.615Z,27.55
2016-06-18T10:52:16.072Z,27.59
2016-06-18T10:53:17.356Z,27.7
2016-06-18T10:54:16.751Z,27.71
2016-06-18T10:55:16.676Z,27.74
2016-06-18T10:56:16.132Z,27.78
2016-06-18T10:57:16.151Z,27.75
2016-06-18T10:58:16.779Z,27.86
2016-06-18T10:59:16.315Z,27.95
2016-06-18T11:00:16.319Z,27.98
2016-06-18T11:01:16.868Z,28.1
2016-06-18T11:02:16.340Z,27.98
2016-06-18T11:03:16.391Z,28.12
2016-06-18T11:04:16.394Z,28.22
2016-06-18T11:05:16.414Z,28.38
2016-06-18T11:06:16.401Z,28.39
2016-06-18T11:07:16.421Z,28.49
2016-06-18T11:08:16.455Z,28.49
2016-06-18T11:09:16.490Z,28.62
2016-06-18T11:10:16.524Z,28.63
2016-06-18T11:11:16.559Z,28.63
2016-06-18T11:12:16.578Z,28.74
2016-06-18T11:13:16.613Z,28.7
2016-06-18T11:14:16.647Z,28.76
2016-06-18T11:15:16.682Z,28.78
2016-06-18T11:16:16.701Z,28.84
2016-06-18T11:17:16.752Z,28.85
2016-06-18T11:18:16.771Z,28.89
2016-06-18T11:19:16.805Z,28.86
2016-06-18T11:20:16.887Z,28.85
2016-06-18T11:21:16.859Z,28.79
2016-06-18T11:22:16.895Z,28.89
2016-06-18T11:23:16.928Z,28.91
2016-06-18T11:24:16.964Z,28.96
2016-06-18T11:25:16.996Z,29.01
2016-06-18T11:26:17.656Z,29.02
2016-06-18T11:28:21.162Z,28.98
2016-06-18T11:28:30.037Z,29.13
2016-06-18T11:29:30.698Z,29.13
2016-06-18T11:30:30.076Z,29.2
2016-06-18T11:31:30.111Z,29.16
2016-06-18T11:32:30.130Z,29.22
2016-06-18T11:33:30.790Z,29.26
2016-06-18T11:34:30.199Z,29.32
2016-06-18T11:41:32.136Z,29.34
2016-06-18T11:42:32.139Z,29.49
2016-06-18T11:43:32.283Z,29.47
2016-06-18T11:44:32.912Z,29.5
2016-06-18T11:45:32.290Z,29.57
2016-06-18T11:46:32.293Z,29.5
2016-06-18T11:47:32.314Z,29.54
2016-06-18T11:48:32.456Z,29.6
2016-06-18T11:49:43.307Z,29.53
2016-06-18T11:50:32.479Z,29.6
2016-06-18T11:51:32.483Z,29.63
2016-06-18T11:52:32.487Z,29.54
2016-06-18T11:53:32.490Z,29.57
2016-06-18T11:54:33.135Z,29.73
2016-06-18T11:55:33.200Z,29.72
2016-06-18T11:56:32.501Z,29.78
2016-06-18T11:57:32.535Z,29.75
2016-06-18T11:58:32.571Z,29.84
2016-06-18T11:59:33.216Z,29.84
2016-06-18T12:00:32.642Z,29.81
2016-06-18T12:01:32.678Z,29.9
2016-06-18T12:02:32.714Z,29.95
2016-06-18T12:03:33.358Z,30
2016-06-18T12:04:32.769Z,30.09
2016-06-18T12:05:32.835Z,30.21
2016-06-18T12:06:33.448Z,30.19
2016-06-18T12:07:33.499Z,30.35
2016-06-18T12:08:32.909Z,30.47
2016-06-18T12:09:32.944Z,30.51
2016-06-18T12:10:32.963Z,30.55
2016-06-18T12:11:33.013Z,30.73
2016-06-18T12:12:33.033Z,30.85
2016-06-18T12:13:33.067Z,30.99
2016-06-18T12:14:33.101Z,31.07
2016-06-18T12:15:33.137Z,31.22
2016-06-18T12:16:33.797Z,31.28
2016-06-18T12:17:33.190Z,31.34
2016-06-18T12:18:33.227Z,31.55
2016-06-18T12:19:33.277Z,31.56
2016-06-18T12:20:33.296Z,31.64
2016-06-18T12:21:33.331Z,31.71
2016-06-18T12:22:33.366Z,31.73
2016-06-18T12:23:33.400Z,31.74
2016-06-18T12:24:33.435Z,31.89
2016-06-18T12:25:33.455Z,32
2016-06-18T12:26:34.848Z,32.09
2016-06-18T12:27:33.523Z,32.15
2016-06-18T12:28:33.559Z,32.27
2016-06-18T12:29:33.594Z,32.3
2016-06-18T12:30:33.644Z,32.36
2016-06-18T12:31:34.287Z,32.48
2016-06-18T12:32:33.697Z,32.43
2016-06-18T12:33:34.451Z,32.45
2016-06-18T12:34:34.469Z,32.51
2016-06-18T12:35:33.848Z,32.63
2016-06-18T12:36:34.493Z,32.63
2016-06-18T12:37:34.480Z,32.74
2016-06-18T12:38:33.906Z,32.75
2016-06-18T12:39:33.940Z,32.92
2016-06-18T12:40:33.976Z,32.95
2016-06-18T12:41:34.619Z,32.87
2016-06-18T12:42:34.060Z,33.08
2016-06-18T12:43:34.079Z,33.24
2016-06-18T12:44:34.115Z,33.27
2016-06-18T12:45:34.149Z,33.27
2016-06-18T12:46:34.792Z,33.45
2016-06-18T12:47:34.843Z,33.39
2016-06-18T12:48:34.253Z,33.42
2016-06-18T12:49:34.272Z,33.5
2016-06-18T12:50:34.322Z,33.46
2016-06-18T12:51:34.357Z,33.46
2016-06-18T12:52:34.393Z,33.55
2016-06-18T12:53:35.037Z,33.42
2016-06-18T12:54:34.478Z,33.43
2016-06-18T12:55:35.732Z,33.37
2016-06-18T12:56:34.517Z,33.34
2016-06-18T12:57:34.568Z,33.34
2016-06-18T12:58:35.227Z,33.28
2016-06-18T12:59:34.636Z,33.14
2016-06-18T13:00:34.687Z,33.08
2016-06-18T13:01:35.315Z,33.04
2016-06-18T13:02:34.741Z,33.01
2016-06-18T13:03:34.760Z,32.89
2016-06-18T13:04:34.810Z,33.01
2016-06-18T13:05:35.470Z,32.86